WAT116 KAUS-KSAF
Flight info
| Callsign | WAT116 |
|---|---|
| Flight time | 1h 2m |
| Altitude | 34000 |
| Route | ELOEL3 ABI |
| Aircraft | A320/M-SDE3FGHIRWY/LB1 |
Departure
| Time | 2026-05-06 00:23 |
|---|---|
| Airport | Austin Bergstrom International Airport (KAUS) |
Arrival
| Time | 2026-05-06 01:26 |
|---|---|
| Airport | Santa Fe Municipal Airport (KSAF) |
| Time | Latitude | Longitude | Altitude | Speed | Heading |
|---|---|---|---|---|---|
| 2026-05-06 00:02 | 30.20150 | -97.66811 | 501 ft | 0 kts | 16° |
| 2026-05-06 00:13 | 30.20137 | -97.66816 | 501 ft | 2 kts | 16° |
| 2026-05-06 00:13 | 30.20121 | -97.66821 | 501 ft | 2 kts | 16° |
| 2026-05-06 00:14 | 30.20104 | -97.66827 | 501 ft | 2 kts | 53° |
| 2026-05-06 00:14 | 30.20094 | -97.66838 | 501 ft | 0 kts | 12° |
| 2026-05-06 00:14 | 30.20095 | -97.66837 | 501 ft | 2 kts | 12° |
| 2026-05-06 00:15 | 30.20081 | -97.66845 | 501 ft | 2 kts | 76° |
| 2026-05-06 00:15 | 30.20079 | -97.66854 | 501 ft | 0 kts | 88° |
| 2026-05-06 00:17 | 30.20077 | -97.66816 | 501 ft | 9 kts | 95° |
| 2026-05-06 00:17 | 30.20059 | -97.66735 | 501 ft | 12 kts | 119° |
| 2026-05-06 00:17 | 30.19983 | -97.66690 | 501 ft | 14 kts | 172° |
| 2026-05-06 00:18 | 30.19909 | -97.66632 | 501 ft | 15 kts | 99° |
| 2026-05-06 00:18 | 30.19910 | -97.66504 | 501 ft | 17 kts | 88° |
| 2026-05-06 00:18 | 30.19913 | -97.66359 | 501 ft | 19 kts | 89° |
| 2026-05-06 00:18 | 30.19916 | -97.66189 | 490 ft | 24 kts | 89° |
| 2026-05-06 00:19 | 30.19924 | -97.66027 | 484 ft | 18 kts | 66° |
| 2026-05-06 00:19 | 30.20038 | -97.65992 | 484 ft | 18 kts | 360° |
| 2026-05-06 00:19 | 30.20170 | -97.65995 | 488 ft | 20 kts | 358° |
| 2026-05-06 00:19 | 30.20310 | -97.65998 | 490 ft | 17 kts | 359° |
| 2026-05-06 00:20 | 30.20373 | -97.65916 | 490 ft | 9 kts | 87° |
| 2026-05-06 00:20 | 30.20373 | -97.65908 | 490 ft | 0 kts | 88° |
| 2026-05-06 00:21 | 30.20373 | -97.65907 | 490 ft | 0 kts | 88° |
| 2026-05-06 00:22 | 30.20374 | -97.65879 | 489 ft | 7 kts | 89° |
| 2026-05-06 00:22 | 30.20364 | -97.65804 | 481 ft | 10 kts | 125° |
| 2026-05-06 00:22 | 30.20285 | -97.65785 | 483 ft | 16 kts | 178° |
| 2026-05-06 00:22 | 30.19919 | -97.65775 | 480 ft | 95 kts | 178° |
| 2026-05-06 00:23 | 30.19029 | -97.65738 | 499 ft | 157 kts | 177° |
| 2026-05-06 00:23 | 30.17871 | -97.65696 | 1052 ft | 172 kts | 179° |
| 2026-05-06 00:23 | 30.16646 | -97.65672 | 1775 ft | 179 kts | 179° |
| 2026-05-06 00:23 | 30.15383 | -97.65666 | 2609 ft | 185 kts | 180° |
| 2026-05-06 00:24 | 30.14028 | -97.65680 | 3316 ft | 207 kts | 181° |
| 2026-05-06 00:24 | 30.12514 | -97.65719 | 4064 ft | 227 kts | 183° |
| 2026-05-06 00:24 | 30.10880 | -97.65783 | 4936 ft | 240 kts | 185° |
| 2026-05-06 00:24 | 30.09325 | -97.65847 | 5634 ft | 210 kts | 185° |
| 2026-05-06 00:25 | 30.07889 | -97.65876 | 6336 ft | 203 kts | 188° |
| 2026-05-06 00:25 | 30.06506 | -97.66057 | 6951 ft | 203 kts | 197° |
| 2026-05-06 00:25 | 30.05141 | -97.66517 | 7748 ft | 201 kts | 206° |
| 2026-05-06 00:25 | 30.03950 | -97.67184 | 8904 ft | 182 kts | 216° |
| 2026-05-06 00:26 | 30.02905 | -97.68042 | 9634 ft | 194 kts | 223° |
| 2026-05-06 00:26 | 30.01815 | -97.69278 | 9531 ft | 244 kts | 229° |
| 2026-05-06 00:26 | 30.00566 | -97.70864 | 9529 ft | 289 kts | 229° |
| 2026-05-06 00:26 | 29.99275 | -97.72823 | 9497 ft | 325 kts | 244° |
| 2026-05-06 00:27 | 29.98763 | -97.75436 | 9911 ft | 344 kts | 270° |
| 2026-05-06 00:27 | 29.99316 | -97.78139 | 10617 ft | 360 kts | 292° |
| 2026-05-06 00:27 | 30.00880 | -97.80437 | 11158 ft | 382 kts | 317° |
| 2026-05-06 00:27 | 30.03322 | -97.81870 | 11977 ft | 399 kts | 339° |
| 2026-05-06 00:28 | 30.06052 | -97.82442 | 12864 ft | 410 kts | 351° |
| 2026-05-06 00:28 | 30.08969 | -97.82512 | 13752 ft | 418 kts | 356° |
| 2026-05-06 00:28 | 30.11889 | -97.82358 | 14538 ft | 424 kts | 358° |
| 2026-05-06 00:28 | 30.14818 | -97.82197 | 15331 ft | 428 kts | 357° |
| 2026-05-06 00:29 | 30.17801 | -97.82141 | 16146 ft | 432 kts | 354° |
| 2026-05-06 00:29 | 30.20820 | -97.82220 | 16933 ft | 436 kts | 352° |
| 2026-05-06 00:29 | 30.23863 | -97.82408 | 17694 ft | 440 kts | 350° |
| 2026-05-06 00:29 | 30.26934 | -97.82656 | 18412 ft | 444 kts | 349° |
| 2026-05-06 00:30 | 30.30028 | -97.82925 | 18887 ft | 447 kts | 349° |
| 2026-05-06 00:30 | 30.33205 | -97.83194 | 19317 ft | 450 kts | 349° |
| 2026-05-06 00:30 | 30.39491 | -97.83660 | 20179 ft | 455 kts | 349° |
| 2026-05-06 00:30 | 30.45853 | -97.84067 | 20967 ft | 460 kts | 349° |
| 2026-05-06 00:31 | 30.52277 | -97.84475 | 21711 ft | 464 kts | 349° |
| 2026-05-06 00:31 | 30.58750 | -97.84897 | 22392 ft | 468 kts | 349° |
| 2026-05-06 00:31 | 30.65281 | -97.85335 | 22994 ft | 471 kts | 348° |
| 2026-05-06 00:31 | 30.71745 | -97.85781 | 23561 ft | 474 kts | 347° |
| 2026-05-06 00:32 | 30.78141 | -97.87434 | 24078 ft | 460 kts | 333° |
| 2026-05-06 00:32 | 30.84240 | -97.89741 | 24591 ft | 463 kts | 333° |
| 2026-05-06 00:32 | 30.90371 | -97.92059 | 25254 ft | 457 kts | 329° |
| 2026-05-06 00:32 | 30.95985 | -97.95245 | 26037 ft | 447 kts | 323° |
| 2026-05-06 00:33 | 31.01510 | -97.98508 | 26881 ft | 444 kts | 323° |
| 2026-05-06 00:33 | 31.06961 | -98.01714 | 27719 ft | 442 kts | 322° |
| 2026-05-06 00:33 | 31.12434 | -98.04942 | 28603 ft | 439 kts | 322° |
| 2026-05-06 00:33 | 31.17549 | -98.08562 | 29506 ft | 417 kts | 309° |
| 2026-05-06 00:34 | 31.21417 | -98.13376 | 30311 ft | 403 kts | 301° |
| 2026-05-06 00:34 | 31.25091 | -98.18285 | 31090 ft | 400 kts | 301° |
| 2026-05-06 00:34 | 31.28747 | -98.23152 | 31967 ft | 396 kts | 300° |
| 2026-05-06 00:34 | 31.32367 | -98.27977 | 32828 ft | 392 kts | 300° |
| 2026-05-06 00:35 | 31.35941 | -98.32765 | 33634 ft | 389 kts | 299° |
| 2026-05-06 00:35 | 31.39529 | -98.37613 | 33738 ft | 400 kts | 299° |
| 2026-05-06 00:35 | 31.43214 | -98.42570 | 33728 ft | 404 kts | 300° |
| 2026-05-06 00:36 | 31.50590 | -98.52490 | 33724 ft | 404 kts | 299° |
| 2026-05-06 00:36 | 31.57897 | -98.62360 | 33725 ft | 401 kts | 300° |
| 2026-05-06 00:37 | 31.65219 | -98.72244 | 33746 ft | 401 kts | 300° |
| 2026-05-06 00:37 | 31.72554 | -98.82206 | 33764 ft | 404 kts | 299° |
| 2026-05-06 00:38 | 31.78672 | -98.90538 | 33794 ft | 404 kts | 300° |
| 2026-05-06 00:38 | 31.86003 | -99.00526 | 33790 ft | 403 kts | 300° |
| 2026-05-06 00:39 | 31.94496 | -99.12144 | 33785 ft | 402 kts | 299° |
| 2026-05-06 00:39 | 32.00614 | -99.20523 | 33757 ft | 402 kts | 299° |
| 2026-05-06 00:40 | 32.07900 | -99.30557 | 33761 ft | 403 kts | 299° |
| 2026-05-06 00:40 | 32.15193 | -99.40611 | 33768 ft | 404 kts | 299° |
| 2026-05-06 00:41 | 32.22457 | -99.50624 | 33757 ft | 403 kts | 298° |
| 2026-05-06 00:41 | 32.29729 | -99.60715 | 33734 ft | 404 kts | 298° |
| 2026-05-06 00:42 | 32.37040 | -99.70867 | 33813 ft | 405 kts | 298° |
| 2026-05-06 00:42 | 32.44344 | -99.81046 | 33793 ft | 406 kts | 298° |
| 2026-05-06 00:43 | 32.51059 | -99.91516 | 33762 ft | 391 kts | 291° |
| 2026-05-06 00:43 | 32.57098 | -100.02302 | 33749 ft | 393 kts | 291° |
| 2026-05-06 00:44 | 32.63153 | -100.13131 | 33736 ft | 395 kts | 291° |
| 2026-05-06 00:44 | 32.69216 | -100.23997 | 33718 ft | 391 kts | 291° |
| 2026-05-06 00:45 | 32.75130 | -100.34608 | 33764 ft | 384 kts | 290° |
| 2026-05-06 00:45 | 32.80981 | -100.45187 | 33758 ft | 386 kts | 291° |
| 2026-05-06 00:46 | 32.86900 | -100.55880 | 33767 ft | 386 kts | 290° |
| 2026-05-06 00:46 | 32.92798 | -100.66575 | 33811 ft | 387 kts | 290° |
| 2026-05-06 00:47 | 32.98693 | -100.77294 | 33807 ft | 387 kts | 290° |
| 2026-05-06 00:47 | 33.04575 | -100.88007 | 33794 ft | 386 kts | 290° |
| 2026-05-06 00:48 | 33.10427 | -100.98748 | 33795 ft | 386 kts | 290° |
| 2026-05-06 00:48 | 33.16298 | -101.09494 | 33794 ft | 386 kts | 290° |
| 2026-05-06 00:49 | 33.22146 | -101.20260 | 33820 ft | 386 kts | 290° |
| 2026-05-06 00:49 | 33.27965 | -101.31005 | 33846 ft | 385 kts | 289° |
| 2026-05-06 00:50 | 33.33768 | -101.41743 | 33826 ft | 384 kts | 289° |
| 2026-05-06 00:50 | 33.39551 | -101.52484 | 33816 ft | 384 kts | 289° |
| 2026-05-06 00:51 | 33.45290 | -101.63169 | 33833 ft | 383 kts | 289° |
| 2026-05-06 00:51 | 33.51056 | -101.73913 | 33858 ft | 383 kts | 289° |
| 2026-05-06 00:52 | 33.56790 | -101.84664 | 33864 ft | 383 kts | 289° |
| 2026-05-06 00:52 | 33.62525 | -101.95427 | 33853 ft | 383 kts | 288° |
| 2026-05-06 00:53 | 33.68242 | -102.06196 | 33790 ft | 381 kts | 288° |
| 2026-05-06 00:53 | 33.73949 | -102.16981 | 33768 ft | 384 kts | 288° |
| 2026-05-06 00:54 | 33.79684 | -102.27840 | 33755 ft | 385 kts | 288° |
| 2026-05-06 00:54 | 33.85397 | -102.38683 | 33815 ft | 386 kts | 288° |
| 2026-05-06 00:55 | 33.91124 | -102.49638 | 33732 ft | 384 kts | 288° |
| 2026-05-06 00:55 | 33.96848 | -102.60578 | 33734 ft | 387 kts | 288° |
| 2026-05-06 00:56 | 34.02579 | -102.71569 | 33744 ft | 388 kts | 288° |
| 2026-05-06 00:56 | 34.08336 | -102.82615 | 33766 ft | 390 kts | 288° |
| 2026-05-06 00:57 | 34.14096 | -102.93771 | 33751 ft | 393 kts | 288° |
| 2026-05-06 00:57 | 34.19888 | -103.04977 | 33792 ft | 394 kts | 288° |
| 2026-05-06 00:58 | 34.25695 | -103.16246 | 33789 ft | 395 kts | 288° |
| 2026-05-06 00:58 | 34.31432 | -103.27418 | 33830 ft | 390 kts | 289° |
| 2026-05-06 00:59 | 34.37148 | -103.38584 | 33830 ft | 390 kts | 289° |
| 2026-05-06 00:59 | 34.42836 | -103.49765 | 33806 ft | 390 kts | 289° |
| 2026-05-06 00:59 | 34.45610 | -103.55206 | 33657 ft | 387 kts | 289° |
| 2026-05-06 01:00 | 34.48444 | -103.60644 | 33709 ft | 379 kts | 289° |
| 2026-05-06 01:00 | 34.53984 | -103.71457 | 33644 ft | 373 kts | 284° |
| 2026-05-06 01:01 | 34.58908 | -103.82784 | 33641 ft | 383 kts | 287° |
| 2026-05-06 01:01 | 34.63952 | -103.94165 | 33631 ft | 383 kts | 286° |
| 2026-05-06 01:02 | 34.68943 | -104.05602 | 33689 ft | 383 kts | 285° |
| 2026-05-06 01:02 | 34.73918 | -104.17024 | 33666 ft | 382 kts | 285° |
| 2026-05-06 01:03 | 34.78885 | -104.28456 | 33664 ft | 383 kts | 285° |
| 2026-05-06 01:03 | 34.83857 | -104.39939 | 33752 ft | 384 kts | 285° |
| 2026-05-06 01:04 | 34.88825 | -104.51470 | 33879 ft | 385 kts | 285° |
| 2026-05-06 01:04 | 34.93778 | -104.62982 | 33855 ft | 383 kts | 285° |
| 2026-05-06 01:05 | 34.98677 | -104.74438 | 33853 ft | 384 kts | 285° |
| 2026-05-06 01:05 | 35.03617 | -104.86012 | 33780 ft | 385 kts | 285° |
| 2026-05-06 01:06 | 35.08568 | -104.97610 | 33678 ft | 386 kts | 285° |
| 2026-05-06 01:06 | 35.13532 | -105.09319 | 33674 ft | 389 kts | 285° |
| 2026-05-06 01:07 | 35.18492 | -105.21071 | 33691 ft | 390 kts | 285° |
| 2026-05-06 01:07 | 35.23456 | -105.32875 | 33742 ft | 390 kts | 285° |
| 2026-05-06 01:08 | 35.28400 | -105.44656 | 33743 ft | 387 kts | 285° |
| 2026-05-06 01:08 | 35.33291 | -105.56348 | 33760 ft | 386 kts | 285° |
| 2026-05-06 01:09 | 35.38192 | -105.68122 | 33799 ft | 388 kts | 285° |
| 2026-05-06 01:09 | 35.38457 | -105.68759 | 33799 ft | 388 kts | 285° |
| 2026-05-06 01:12 | 35.38474 | -105.68799 | 34045 ft | 388 kts | 285° |
| 2026-05-06 01:13 | 35.40960 | -105.74787 | 33490 ft | 388 kts | 285° |
| 2026-05-06 01:13 | 35.42180 | -105.77706 | 33206 ft | 377 kts | 284° |
| 2026-05-06 01:13 | 35.43365 | -105.80529 | 32937 ft | 366 kts | 284° |
| 2026-05-06 01:13 | 35.44513 | -105.83268 | 32740 ft | 355 kts | 284° |
| 2026-05-06 01:14 | 35.46684 | -105.88463 | 31665 ft | 333 kts | 283° |
| 2026-05-06 01:14 | 35.47717 | -105.90975 | 30933 ft | 327 kts | 283° |
| 2026-05-06 01:14 | 35.48724 | -105.93444 | 30200 ft | 322 kts | 283° |
| 2026-05-06 01:15 | 35.49719 | -105.95882 | 29434 ft | 317 kts | 283° |
| 2026-05-06 01:15 | 35.50702 | -105.98287 | 28598 ft | 314 kts | 284° |
| 2026-05-06 01:15 | 35.51876 | -106.00598 | 27775 ft | 327 kts | 295° |
| 2026-05-06 01:15 | 35.53510 | -106.02645 | 26950 ft | 345 kts | 308° |
| 2026-05-06 01:16 | 35.55592 | -106.04258 | 26169 ft | 364 kts | 322° |
| 2026-05-06 01:16 | 35.58048 | -106.05260 | 25440 ft | 382 kts | 337° |
| 2026-05-06 01:16 | 35.60749 | -106.05494 | 24762 ft | 398 kts | 353° |
| 2026-05-06 01:16 | 35.63509 | -106.05113 | 24103 ft | 398 kts | 357° |
| 2026-05-06 01:17 | 35.66240 | -106.04697 | 23510 ft | 392 kts | 358° |
| 2026-05-06 01:17 | 35.68893 | -106.04295 | 22862 ft | 385 kts | 359° |
| 2026-05-06 01:17 | 35.71529 | -106.03902 | 22135 ft | 379 kts | 359° |
| 2026-05-06 01:17 | 35.74126 | -106.03521 | 21409 ft | 374 kts | 359° |
| 2026-05-06 01:18 | 35.76699 | -106.03146 | 20837 ft | 370 kts | 359° |
| 2026-05-06 01:18 | 35.79244 | -106.02777 | 20120 ft | 366 kts | 360° |
| 2026-05-06 01:18 | 35.81759 | -106.02411 | 19416 ft | 362 kts | 0° |
| 2026-05-06 01:18 | 35.84244 | -106.01902 | 18707 ft | 365 kts | 14° |
| 2026-05-06 01:19 | 35.86434 | -106.00313 | 18132 ft | 370 kts | 43° |
| 2026-05-06 01:19 | 35.87887 | -105.97753 | 17093 ft | 364 kts | 69° |
| 2026-05-06 01:19 | 35.88296 | -105.94742 | 15965 ft | 354 kts | 99° |
| 2026-05-06 01:19 | 35.87596 | -105.91948 | 14852 ft | 333 kts | 129° |
| 2026-05-06 01:20 | 35.86022 | -105.90033 | 13865 ft | 307 kts | 161° |
| 2026-05-06 01:20 | 35.84120 | -105.89537 | 13435 ft | 258 kts | 196° |
| 2026-05-06 01:20 | 35.82608 | -105.90244 | 13134 ft | 225 kts | 214° |
| 2026-05-06 01:20 | 35.81255 | -105.91153 | 12476 ft | 220 kts | 213° |
| 2026-05-06 01:21 | 35.79915 | -105.92052 | 11746 ft | 219 kts | 213° |
| 2026-05-06 01:21 | 35.78586 | -105.92956 | 11036 ft | 218 kts | 216° |
| 2026-05-06 01:21 | 35.77524 | -105.94225 | 10517 ft | 211 kts | 239° |
| 2026-05-06 01:21 | 35.76741 | -105.95736 | 10203 ft | 206 kts | 240° |
| 2026-05-06 01:22 | 35.75967 | -105.97242 | 10203 ft | 210 kts | 240° |
| 2026-05-06 01:22 | 35.75191 | -105.98754 | 10128 ft | 203 kts | 240° |
| 2026-05-06 01:22 | 35.74458 | -106.00183 | 10039 ft | 192 kts | 238° |
| 2026-05-06 01:22 | 35.73765 | -106.01540 | 9872 ft | 185 kts | 238° |
| 2026-05-06 01:23 | 35.72990 | -106.02770 | 9564 ft | 180 kts | 224° |
| 2026-05-06 01:23 | 35.71928 | -106.03590 | 9233 ft | 182 kts | 205° |
| 2026-05-06 01:23 | 35.70730 | -106.04120 | 8857 ft | 183 kts | 204° |
| 2026-05-06 01:23 | 35.69536 | -106.04654 | 8491 ft | 183 kts | 204° |
| 2026-05-06 01:24 | 35.68364 | -106.05181 | 8147 ft | 171 kts | 204° |
| 2026-05-06 01:24 | 35.67625 | -106.05463 | 7884 ft | 165 kts | 196° |
| 2026-05-06 01:24 | 35.66515 | -106.05643 | 7514 ft | 156 kts | 192° |
| 2026-05-06 01:24 | 35.65488 | -106.05898 | 7206 ft | 148 kts | 203° |
| 2026-05-06 01:25 | 35.64284 | -106.06627 | 6855 ft | 145 kts | 217° |
| 2026-05-06 01:25 | 35.63734 | -106.07125 | 6692 ft | 146 kts | 222° |
| 2026-05-06 01:25 | 35.62895 | -106.07836 | 6409 ft | 148 kts | 221° |
| 2026-05-06 01:25 | 35.62100 | -106.08543 | 6319 ft | 117 kts | 219° |
| 2026-05-06 01:26 | 35.61845 | -106.08770 | 6314 ft | 5 kts | 213° |
| 2026-05-06 01:26 | 35.61811 | -106.08796 | 6316 ft | 7 kts | 213° |
| 2026-05-06 01:26 | 35.61768 | -106.08831 | 6315 ft | 8 kts | 213° |
| 2026-05-06 01:26 | 35.61719 | -106.08868 | 6315 ft | 9 kts | 208° |
| 2026-05-06 01:27 | 35.61652 | -106.08894 | 6316 ft | 11 kts | 167° |
| 2026-05-06 01:27 | 35.61618 | -106.08820 | 6315 ft | 10 kts | 114° |
| 2026-05-06 01:27 | 35.61595 | -106.08741 | 6318 ft | 9 kts | 109° |
| 2026-05-06 01:27 | 35.61587 | -106.08669 | 6319 ft | 9 kts | 71° |
| 2026-05-06 01:28 | 35.61629 | -106.08608 | 6319 ft | 10 kts | 46° |
| 2026-05-06 01:28 | 35.61692 | -106.08570 | 6319 ft | 11 kts | 352° |
| 2026-05-06 01:28 | 35.61774 | -106.08602 | 6316 ft | 14 kts | 348° |
| 2026-05-06 01:28 | 35.61869 | -106.08566 | 6316 ft | 15 kts | 33° |
| 2026-05-06 01:29 | 35.61917 | -106.08487 | 6317 ft | 9 kts | 129° |
| 2026-05-06 01:29 | 35.61868 | -106.08489 | 6319 ft | 6 kts | 189° |
| 2026-05-06 01:29 | 35.61849 | -106.08500 | 6319 ft | 0 kts | 212° |